PWSweather.com
Personal Weather Stations
Station Observations

ChardChardGB

Lat: 50.877408, Lon: -2.94964741

Elevation: 341

Station Type: WS3083

http://www.merriott-astro.co.uk/weather/index.htm

High Low Average
Temperature 57.0°F13.9°C 46.2°F7.9°C 50.6°F10.3°C
Dew Point 46.4°F8.0°C 40.7°F4.8°C 43.9°F6.6°C
Winds 6.6 mph 10.6 kmh Calm Calm 2.0 mph S3.2 kmh S
Wind Gusts 11.4 mph18.3 kmh -- 4.0 mph6.4 kmh
Humidity 84% 63% 78%
Pressure 30.25 in1024.4 mb 30.15 in1021.0 mb -
Precipitation 0.00 in0.0 mm - -
Hour Temp Dew Point Humidity Winds Wind Gusts Pressure Precip Precip Rate Daily Precip Total
12:00 AM 46.2°F7.9°C 40.7°F4.8°C 81% 0.5 mph SW0.8 kmh SW 1.6 mph2.6 kmh 30.15 in1021.0 mb 0.00 in0.0 mm 0.00 in0.0 mm 0.00 in0.0 mm
12:10 AM 46.2°F7.9°C 40.7°F4.8°C 81% 0.3 mph ESE0.5 kmh ESE 2.2 mph3.5 kmh 30.16 in1021.3 mb 0.00 in0.0 mm 0.00 in0.0 mm 0.00 in0.0 mm
12:20 AM 46.4°F8.0°C 40.9°F4.9°C 81% 0.5 mph ESE0.8 kmh ESE 2.2 mph3.5 kmh 30.16 in1021.3 mb 0.00 in0.0 mm 0.00 in0.0 mm 0.00 in0.0 mm
12:30 AM 46.9°F8.3°C 41.7°F5.4°C 82% 0.4 mph NE0.6 kmh NE 1.6 mph2.6 kmh 30.16 in1021.3 mb 0.00 in0.0 mm 0.00 in0.0 mm 0.00 in0.0 mm
12:40 AM 47.5°F8.6°C 42.3°F5.7°C 82% 0.9 mph SSE1.4 kmh SSE 2.2 mph3.5 kmh 30.17 in1021.7 mb 0.00 in0.0 mm 0.00 in0.0 mm 0.00 in0.0 mm
12:50 AM 47.5°F8.6°C 42.3°F5.7°C 82% 1.5 mph N2.4 kmh N 2.2 mph3.5 kmh 30.17 in1021.7 mb 0.00 in0.0 mm 0.00 in0.0 mm 0.00 in0.0 mm
01:00 AM 47.5°F8.6°C 42.3°F5.7°C 82% 1.4 mph NE2.3 kmh NE 2.2 mph3.5 kmh 30.17 in1021.7 mb 0.00 in0.0 mm 0.00 in0.0 mm 0.00 in0.0 mm
01:10 AM 47.5°F8.6°C 42.3°F5.7°C 82% 0.2 mph SE0.3 kmh SE 0.7 mph1.1 kmh 30.17 in1021.7 mb 0.00 in0.0 mm 0.00 in0.0 mm 0.00 in0.0 mm
01:20 AM 47.1°F8.4°C 41.9°F5.5°C 82% 0.5 mph WSW0.8 kmh WSW 1.6 mph2.6 kmh 30.17 in1021.7 mb 0.00 in0.0 mm 0.00 in0.0 mm 0.00 in0.0 mm
01:30 AM 46.8°F8.2°C 41.6°F5.3°C 82% 1.0 mph SW1.6 kmh SW 2.2 mph3.5 kmh 30.15 in1021.0 mb 0.00 in0.0 mm 0.00 in0.0 mm 0.00 in0.0 mm
01:40 AM 47.1°F8.4°C 41.9°F5.5°C 82% 2.1 mph S3.4 kmh S 3.1 mph5.0 kmh 30.16 in1021.3 mb 0.00 in0.0 mm 0.00 in0.0 mm 0.00 in0.0 mm
01:50 AM 47.1°F8.4°C 41.9°F5.5°C 82% 2.5 mph SSW4.0 kmh SSW 3.8 mph6.1 kmh 30.15 in1021.0 mb 0.00 in0.0 mm 0.00 in0.0 mm 0.00 in0.0 mm
02:00 AM 46.9°F8.3°C 41.7°F5.4°C 82% 1.4 mph SE2.3 kmh SE 2.2 mph3.5 kmh 30.15 in1021.0 mb 0.00 in0.0 mm 0.00 in0.0 mm 0.00 in0.0 mm
02:10 AM 47.1°F8.4°C 41.9°F5.5°C 82% 1.9 mph SW3.1 kmh SW 3.1 mph5.0 kmh 30.16 in1021.3 mb 0.00 in0.0 mm 0.00 in0.0 mm 0.00 in0.0 mm
02:20 AM 47.3°F8.5°C 42.1°F5.6°C 82% 0.6 mph S1.0 kmh S 1.6 mph2.6 kmh 30.16 in1021.3 mb 0.00 in0.0 mm 0.00 in0.0 mm 0.00 in0.0 mm
02:30 AM 47.5°F8.6°C 42.3°F5.7°C 82% 0.7 mph SSW1.1 kmh SSW 1.6 mph2.6 kmh 30.16 in1021.3 mb 0.00 in0.0 mm 0.00 in0.0 mm 0.00 in0.0 mm
02:40 AM 47.5°F8.6°C 42.3°F5.7°C 82% 1.8 mph S2.9 kmh S 2.2 mph3.5 kmh 30.16 in1021.3 mb 0.00 in0.0 mm 0.00 in0.0 mm 0.00 in0.0 mm
02:50 AM 47.7°F8.7°C 42.4°F5.8°C 82% 0.7 mph SW1.1 kmh SW 2.2 mph3.5 kmh 30.16 in1021.3 mb 0.00 in0.0 mm 0.00 in0.0 mm 0.00 in0.0 mm
03:00 AM 47.7°F8.7°C 42.4°F5.8°C 82% 0.6 mph SW1.0 kmh SW 1.6 mph2.6 kmh 30.16 in1021.3 mb 0.00 in0.0 mm 0.00 in0.0 mm 0.00 in0.0 mm
03:10 AM 47.7°F8.7°C 42.4°F5.8°C 82% 0.3 mph S0.5 kmh S 0.7 mph1.1 kmh 30.16 in1021.3 mb 0.00 in0.0 mm 0.00 in0.0 mm 0.00 in0.0 mm
03:20 AM 47.8°F8.8°C 42.6°F5.9°C 82% Calm Calm -- 30.16 in1021.3 mb 0.00 in0.0 mm 0.00 in0.0 mm 0.00 in0.0 mm
03:30 AM 47.8°F8.8°C 42.6°F5.9°C 82% 0.9 mph SW1.4 kmh SW 2.2 mph3.5 kmh 30.16 in1021.3 mb 0.00 in0.0 mm 0.00 in0.0 mm 0.00 in0.0 mm
03:40 AM 48.0°F8.9°C 42.8°F6.0°C 82% 1.6 mph SSW2.6 kmh SSW 2.2 mph3.5 kmh 30.16 in1021.3 mb 0.00 in0.0 mm 0.00 in0.0 mm 0.00 in0.0 mm
03:50 AM 48.0°F8.9°C 42.8°F6.0°C 82% 1.8 mph SSW2.9 kmh SSW 2.2 mph3.5 kmh 30.16 in1021.3 mb 0.00 in0.0 mm 0.00 in0.0 mm 0.00 in0.0 mm
04:00 AM 47.8°F8.8°C 42.6°F5.9°C 82% 1.4 mph SW2.3 kmh SW 2.2 mph3.5 kmh 30.16 in1021.3 mb 0.00 in0.0 mm 0.00 in0.0 mm 0.00 in0.0 mm
04:10 AM 47.7°F8.7°C 42.4°F5.8°C 82% 1.4 mph SSW2.3 kmh SSW 2.2 mph3.5 kmh 30.16 in1021.3 mb 0.00 in0.0 mm 0.00 in0.0 mm 0.00 in0.0 mm
04:20 AM 47.7°F8.7°C 42.4°F5.8°C 82% 0.6 mph S1.0 kmh S 1.6 mph2.6 kmh 30.16 in1021.3 mb 0.00 in0.0 mm 0.00 in0.0 mm 0.00 in0.0 mm
04:30 AM 47.8°F8.8°C 42.6°F5.9°C 82% 0.8 mph S1.3 kmh S 1.6 mph2.6 kmh 30.16 in1021.3 mb 0.00 in0.0 mm 0.00 in0.0 mm 0.00 in0.0 mm
04:40 AM 47.8°F8.8°C 42.6°F5.9°C 82% Calm Calm -- 30.16 in1021.3 mb 0.00 in0.0 mm 0.00 in0.0 mm 0.00 in0.0 mm
04:50 AM 48.0°F8.9°C 42.8°F6.0°C 82% 0.5 mph S0.8 kmh S 2.2 mph3.5 kmh 30.16 in1021.3 mb 0.00 in0.0 mm 0.00 in0.0 mm 0.00 in0.0 mm
05:00 AM 48.0°F8.9°C 42.8°F6.0°C 82% 1.2 mph S1.9 kmh S 2.2 mph3.5 kmh 30.16 in1021.3 mb 0.00 in0.0 mm 0.00 in0.0 mm 0.00 in0.0 mm
05:10 AM 48.0°F8.9°C 42.8°F6.0°C 82% 1.9 mph SSW3.1 kmh SSW 3.1 mph5.0 kmh 30.16 in1021.3 mb 0.00 in0.0 mm 0.00 in0.0 mm 0.00 in0.0 mm
05:20 AM 48.2°F9.0°C 43.0°F6.1°C 82% 1.8 mph S2.9 kmh S 2.2 mph3.5 kmh 30.16 in1021.3 mb 0.00 in0.0 mm 0.00 in0.0 mm 0.00 in0.0 mm
05:30 AM 48.2°F9.0°C 43.0°F6.1°C 82% 0.8 mph S1.3 kmh S 1.6 mph2.6 kmh 30.17 in1021.7 mb 0.00 in0.0 mm 0.00 in0.0 mm 0.00 in0.0 mm
05:40 AM 48.2°F9.0°C 43.0°F6.1°C 82% 0.7 mph SSW1.1 kmh SSW 1.6 mph2.6 kmh 30.17 in1021.7 mb 0.00 in0.0 mm 0.00 in0.0 mm 0.00 in0.0 mm
05:50 AM 48.2°F9.0°C 43.0°F6.1°C 82% 0.5 mph S0.8 kmh S 1.6 mph2.6 kmh 30.17 in1021.7 mb 0.00 in0.0 mm 0.00 in0.0 mm 0.00 in0.0 mm
06:00 AM 48.2°F9.0°C 43.0°F6.1°C 82% 0.7 mph S1.1 kmh S 2.2 mph3.5 kmh 30.17 in1021.7 mb 0.00 in0.0 mm 0.00 in0.0 mm 0.00 in0.0 mm
06:10 AM 48.4°F9.1°C 43.1°F6.2°C 82% 2.5 mph S4.0 kmh S 4.5 mph7.2 kmh 30.18 in1022.0 mb 0.00 in0.0 mm 0.00 in0.0 mm 0.00 in0.0 mm
06:20 AM 48.2°F9.0°C 43.0°F6.1°C 82% 1.8 mph S2.9 kmh S 2.2 mph3.5 kmh 30.17 in1021.7 mb 0.00 in0.0 mm 0.00 in0.0 mm 0.00 in0.0 mm
06:30 AM 48.0°F8.9°C 42.8°F6.0°C 82% 1.9 mph S3.1 kmh S 3.8 mph6.1 kmh 30.18 in1022.0 mb 0.00 in0.0 mm 0.00 in0.0 mm 0.00 in0.0 mm
06:40 AM 48.0°F8.9°C 42.8°F6.0°C 82% 2.3 mph S3.7 kmh S 3.1 mph5.0 kmh 30.19 in1022.4 mb 0.00 in0.0 mm 0.00 in0.0 mm 0.00 in0.0 mm
06:50 AM 48.2°F9.0°C 43.0°F6.1°C 82% 2.0 mph S3.2 kmh S 3.8 mph6.1 kmh 30.19 in1022.4 mb 0.00 in0.0 mm 0.00 in0.0 mm 0.00 in0.0 mm
07:00 AM 48.2°F9.0°C 43.0°F6.1°C 82% 1.0 mph SW1.6 kmh SW 2.2 mph3.5 kmh 30.20 in1022.7 mb 0.00 in0.0 mm 0.00 in0.0 mm 0.00 in0.0 mm
07:10 AM 48.4°F9.1°C 43.1°F6.2°C 82% 0.3 mph SE0.5 kmh SE 0.7 mph1.1 kmh 30.20 in1022.7 mb 0.00 in0.0 mm 0.00 in0.0 mm 0.00 in0.0 mm
07:20 AM 48.6°F9.2°C 43.3°F6.3°C 82% 0.6 mph E1.0 kmh E 1.6 mph2.6 kmh 30.19 in1022.4 mb 0.00 in0.0 mm 0.00 in0.0 mm 0.00 in0.0 mm
07:30 AM 48.7°F9.3°C 43.5°F6.4°C 82% 0.3 mph S0.5 kmh S 0.7 mph1.1 kmh 30.20 in1022.7 mb 0.00 in0.0 mm 0.00 in0.0 mm 0.00 in0.0 mm
07:40 AM 49.3°F9.6°C 44.0°F6.7°C 82% 0.1 mph S0.2 kmh S 0.7 mph1.1 kmh 30.20 in1022.7 mb 0.00 in0.0 mm 0.00 in0.0 mm 0.00 in0.0 mm
07:50 AM 49.5°F9.7°C 44.2°F6.8°C 82% 0.9 mph SSW1.4 kmh SSW 2.2 mph3.5 kmh 30.21 in1023.0 mb 0.00 in0.0 mm 0.00 in0.0 mm 0.00 in0.0 mm
08:00 AM 49.8°F9.9°C 44.6°F7.0°C 82% 1.0 mph S1.6 kmh S 2.2 mph3.5 kmh 30.22 in1023.4 mb 0.00 in0.0 mm 0.00 in0.0 mm 0.00 in0.0 mm
08:10 AM 50.0°F10.0°C 44.7°F7.1°C 82% 1.0 mph S1.6 kmh S 1.6 mph2.6 kmh 30.22 in1023.4 mb 0.00 in0.0 mm 0.00 in0.0 mm 0.00 in0.0 mm
08:20 AM 50.2°F10.1°C 44.6°F7.0°C 81% 0.4 mph W0.6 kmh W 2.2 mph3.5 kmh 30.22 in1023.4 mb 0.00 in0.0 mm 0.00 in0.0 mm 0.00 in0.0 mm
08:30 AM 50.5°F10.3°C 44.9°F7.2°C 81% 0.9 mph W1.4 kmh W 2.2 mph3.5 kmh 30.22 in1023.4 mb 0.00 in0.0 mm 0.00 in0.0 mm 0.00 in0.0 mm
08:40 AM 51.1°F10.6°C 45.1°F7.3°C 80% 1.2 mph WNW1.9 kmh WNW 2.2 mph3.5 kmh 30.22 in1023.4 mb 0.00 in0.0 mm 0.00 in0.0 mm 0.00 in0.0 mm
08:50 AM 51.6°F10.9°C 45.3°F7.4°C 79% 1.1 mph SW1.8 kmh SW 1.6 mph2.6 kmh 30.22 in1023.4 mb 0.00 in0.0 mm 0.00 in0.0 mm 0.00 in0.0 mm
09:00 AM 51.6°F10.9°C 44.7°F7.1°C 77% 1.7 mph S2.7 kmh S 3.1 mph5.0 kmh 30.23 in1023.7 mb 0.00 in0.0 mm 0.00 in0.0 mm 0.00 in0.0 mm
09:10 AM 51.4°F10.8°C 43.8°F6.6°C 75% 2.5 mph SSW4.0 kmh SSW 3.8 mph6.1 kmh 30.23 in1023.7 mb 0.00 in0.0 mm 0.00 in0.0 mm 0.00 in0.0 mm
09:20 AM 51.8°F11.0°C 44.5°F6.9°C 76% 2.5 mph SW4.0 kmh SW 4.5 mph7.2 kmh 30.23 in1023.7 mb 0.00 in0.0 mm 0.00 in0.0 mm 0.00 in0.0 mm
09:30 AM 52.3°F11.3°C 45.0°F7.2°C 76% 2.2 mph SSW3.5 kmh SSW 3.8 mph6.1 kmh 30.23 in1023.7 mb 0.00 in0.0 mm 0.00 in0.0 mm 0.00 in0.0 mm
09:40 AM 53.1°F11.7°C 45.7°F7.6°C 76% 2.0 mph SW3.2 kmh SW 3.1 mph5.0 kmh 30.24 in1024.0 mb 0.00 in0.0 mm 0.00 in0.0 mm 0.00 in0.0 mm
09:50 AM 53.2°F11.8°C 45.2°F7.3°C 74% 2.7 mph S4.3 kmh S 3.1 mph5.0 kmh 30.23 in1023.7 mb 0.00 in0.0 mm 0.00 in0.0 mm 0.00 in0.0 mm
10:00 AM 53.6°F12.0°C 45.2°F7.3°C 73% 2.9 mph SSW4.7 kmh SSW 4.5 mph7.2 kmh 30.23 in1023.7 mb 0.00 in0.0 mm 0.00 in0.0 mm 0.00 in0.0 mm
10:10 AM 53.8°F12.1°C 45.3°F7.4°C 73% 2.0 mph SW3.2 kmh SW 3.8 mph6.1 kmh 30.24 in1024.0 mb 0.00 in0.0 mm 0.00 in0.0 mm 0.00 in0.0 mm
10:20 AM 53.6°F12.0°C 45.2°F7.3°C 73% 2.1 mph SW3.4 kmh SW 3.8 mph6.1 kmh 30.24 in1024.0 mb 0.00 in0.0 mm 0.00 in0.0 mm 0.00 in0.0 mm
10:30 AM 53.8°F12.1°C 45.3°F7.4°C 73% 2.6 mph S4.2 kmh S 3.8 mph6.1 kmh 30.23 in1023.7 mb 0.00 in0.0 mm 0.00 in0.0 mm 0.00 in0.0 mm
10:40 AM 53.8°F12.1°C 45.3°F7.4°C 73% 3.6 mph SW5.8 kmh SW 6.0 mph9.7 kmh 30.22 in1023.4 mb 0.00 in0.0 mm 0.00 in0.0 mm 0.00 in0.0 mm
10:50 AM 53.1°F11.7°C 45.0°F7.2°C 74% 4.0 mph SW6.4 kmh SW 5.4 mph8.7 kmh 30.22 in1023.4 mb 0.00 in0.0 mm 0.00 in0.0 mm 0.00 in0.0 mm
11:00 AM 53.2°F11.8°C 45.5°F7.5°C 75% 3.3 mph SSW5.3 kmh SSW 4.5 mph7.2 kmh 30.23 in1023.7 mb 0.00 in0.0 mm 0.00 in0.0 mm 0.00 in0.0 mm
11:10 AM 54.1°F12.3°C 46.4°F8.0°C 75% 3.8 mph SSW6.1 kmh SSW 6.9 mph11.1 kmh 30.23 in1023.7 mb 0.00 in0.0 mm 0.00 in0.0 mm 0.00 in0.0 mm
11:20 AM 53.8°F12.1°C 45.7°F7.6°C 74% 4.7 mph W7.6 kmh W 7.6 mph12.2 kmh 30.23 in1023.7 mb 0.00 in0.0 mm 0.00 in0.0 mm 0.00 in0.0 mm
11:30 AM 54.0°F12.2°C 45.5°F7.5°C 73% 3.7 mph SSW6.0 kmh SSW 5.4 mph8.7 kmh 30.23 in1023.7 mb 0.00 in0.0 mm 0.00 in0.0 mm 0.00 in0.0 mm
11:40 AM 54.5°F12.5°C 44.9°F7.2°C 70% 3.4 mph WSW5.5 kmh WSW 5.4 mph8.7 kmh 30.23 in1023.7 mb 0.00 in0.0 mm 0.00 in0.0 mm 0.00 in0.0 mm
11:50 AM 54.3°F12.4°C 45.5°F7.5°C 72% 3.6 mph WSW5.8 kmh WSW 6.0 mph9.7 kmh 30.23 in1023.7 mb 0.00 in0.0 mm 0.00 in0.0 mm 0.00 in0.0 mm
12:00 PM 54.5°F12.5°C 44.9°F7.2°C 70% 4.6 mph SSW7.4 kmh SSW 6.9 mph11.1 kmh 30.23 in1023.7 mb 0.00 in0.0 mm 0.00 in0.0 mm 0.00 in0.0 mm
12:10 PM 54.5°F12.5°C 43.8°F6.6°C 67% 4.0 mph SSW6.4 kmh SSW 6.9 mph11.1 kmh 30.23 in1023.7 mb 0.00 in0.0 mm 0.00 in0.0 mm 0.00 in0.0 mm
12:20 PM 54.5°F12.5°C 43.4°F6.3°C 66% 5.0 mph SW8.0 kmh SW 7.6 mph12.2 kmh 30.23 in1023.7 mb 0.00 in0.0 mm 0.00 in0.0 mm 0.00 in0.0 mm
12:30 PM 54.9°F12.7°C 44.1°F6.7°C 67% 3.2 mph WSW5.1 kmh WSW 4.5 mph7.2 kmh 30.23 in1023.7 mb 0.00 in0.0 mm 0.00 in0.0 mm 0.00 in0.0 mm
12:40 PM 54.9°F12.7°C 43.3°F6.3°C 65% 3.9 mph SSW6.3 kmh SSW 6.9 mph11.1 kmh 30.22 in1023.4 mb 0.00 in0.0 mm 0.00 in0.0 mm 0.00 in0.0 mm
12:50 PM 54.7°F12.6°C 43.6°F6.4°C 66% 4.7 mph S7.6 kmh S 6.9 mph11.1 kmh 30.23 in1023.7 mb 0.00 in0.0 mm 0.00 in0.0 mm 0.00 in0.0 mm
01:00 PM 55.0°F12.8°C 43.9°F6.6°C 66% 3.0 mph WSW4.8 kmh WSW 6.0 mph9.7 kmh 30.22 in1023.4 mb 0.00 in0.0 mm 0.00 in0.0 mm 0.00 in0.0 mm
01:10 PM 54.7°F12.6°C 43.2°F6.2°C 65% 4.9 mph SW7.9 kmh SW 9.2 mph14.8 kmh 30.22 in1023.4 mb 0.00 in0.0 mm 0.00 in0.0 mm 0.00 in0.0 mm
01:20 PM 55.2°F12.9°C 44.1°F6.7°C 66% 3.9 mph S6.3 kmh S 6.9 mph11.1 kmh 30.22 in1023.4 mb 0.00 in0.0 mm 0.00 in0.0 mm 0.00 in0.0 mm
01:30 PM 54.9°F12.7°C 42.9°F6.1°C 64% 5.9 mph S9.5 kmh S 9.8 mph15.8 kmh 30.22 in1023.4 mb 0.00 in0.0 mm 0.00 in0.0 mm 0.00 in0.0 mm
01:40 PM 54.5°F12.5°C 43.0°F6.1°C 65% 6.6 mph SSW10.6 kmh SSW 9.2 mph14.8 kmh 30.21 in1023.0 mb 0.00 in0.0 mm 0.00 in0.0 mm 0.00 in0.0 mm
01:50 PM 54.9°F12.7°C 43.7°F6.5°C 66% 5.4 mph SW8.7 kmh SW 11.4 mph18.3 kmh 30.21 in1023.0 mb 0.00 in0.0 mm 0.00 in0.0 mm 0.00 in0.0 mm
02:00 PM 54.9°F12.7°C 43.3°F6.3°C 65% 5.1 mph SSW8.2 kmh SSW 6.9 mph11.1 kmh 30.21 in1023.0 mb 0.00 in0.0 mm 0.00 in0.0 mm 0.00 in0.0 mm
02:10 PM 54.7°F12.6°C 43.2°F6.2°C 65% 4.7 mph SSW7.6 kmh SSW 7.6 mph12.2 kmh 30.22 in1023.4 mb 0.00 in0.0 mm 0.00 in0.0 mm 0.00 in0.0 mm
02:20 PM 55.4°F13.0°C 43.8°F6.6°C 65% 2.8 mph SSW4.5 kmh SSW 4.5 mph7.2 kmh 30.21 in1023.0 mb 0.00 in0.0 mm 0.00 in0.0 mm 0.00 in0.0 mm
02:30 PM 55.2°F12.9°C 43.3°F6.3°C 64% 4.2 mph SSW6.8 kmh SSW 6.0 mph9.7 kmh 30.21 in1023.0 mb 0.00 in0.0 mm 0.00 in0.0 mm 0.00 in0.0 mm
02:40 PM 55.2°F12.9°C 43.7°F6.5°C 65% 4.4 mph SW7.1 kmh SW 7.6 mph12.2 kmh 30.21 in1023.0 mb 0.00 in0.0 mm 0.00 in0.0 mm 0.00 in0.0 mm
02:50 PM 55.9°F13.3°C 43.9°F6.6°C 64% 4.3 mph WSW6.9 kmh WSW 7.6 mph12.2 kmh 30.21 in1023.0 mb 0.00 in0.0 mm 0.00 in0.0 mm 0.00 in0.0 mm
03:00 PM 57.0°F13.9°C 44.6°F7.0°C 63% 4.2 mph SSW6.8 kmh SSW 6.0 mph9.7 kmh 30.21 in1023.0 mb 0.00 in0.0 mm 0.00 in0.0 mm 0.00 in0.0 mm
03:10 PM 56.3°F13.5°C 43.9°F6.6°C 63% 4.0 mph SSW6.4 kmh SSW 6.0 mph9.7 kmh 30.20 in1022.7 mb 0.00 in0.0 mm 0.00 in0.0 mm 0.00 in0.0 mm
03:20 PM 55.9°F13.3°C 43.9°F6.6°C 64% 3.6 mph SSW5.8 kmh SSW 5.4 mph8.7 kmh 30.20 in1022.7 mb 0.00 in0.0 mm 0.00 in0.0 mm 0.00 in0.0 mm
03:30 PM 54.5°F12.5°C 43.0°F6.1°C 65% 6.0 mph SW9.7 kmh SW 8.3 mph13.4 kmh 30.20 in1022.7 mb 0.00 in0.0 mm 0.00 in0.0 mm 0.00 in0.0 mm
03:40 PM 54.3°F12.4°C 45.1°F7.3°C 71% 5.0 mph S8.0 kmh S 6.9 mph11.1 kmh 30.21 in1023.0 mb 0.00 in0.0 mm 0.00 in0.0 mm 0.00 in0.0 mm
03:50 PM 54.0°F12.2°C 45.1°F7.3°C 72% 5.1 mph S8.2 kmh S 7.6 mph12.2 kmh 30.21 in1023.0 mb 0.00 in0.0 mm 0.00 in0.0 mm 0.00 in0.0 mm
04:00 PM 53.6°F12.0°C 44.8°F7.1°C 72% 5.9 mph SSW9.5 kmh SSW 8.3 mph13.4 kmh 30.21 in1023.0 mb 0.00 in0.0 mm 0.00 in0.0 mm 0.00 in0.0 mm
04:10 PM 53.2°F11.8°C 44.8°F7.1°C 73% 5.0 mph SSW8.0 kmh SSW 8.3 mph13.4 kmh 30.20 in1022.7 mb 0.00 in0.0 mm 0.00 in0.0 mm 0.00 in0.0 mm
04:20 PM 53.1°F11.7°C 44.6°F7.0°C 73% 5.0 mph SW8.0 kmh SW 6.0 mph9.7 kmh 30.20 in1022.7 mb 0.00 in0.0 mm 0.00 in0.0 mm 0.00 in0.0 mm
04:30 PM 52.9°F11.6°C 44.8°F7.1°C 74% 4.2 mph SW6.8 kmh SW 5.4 mph8.7 kmh 30.20 in1022.7 mb 0.00 in0.0 mm 0.00 in0.0 mm 0.00 in0.0 mm
04:40 PM 52.7°F11.5°C 44.7°F7.1°C 74% 5.0 mph SSW8.0 kmh SSW 7.6 mph12.2 kmh 30.20 in1022.7 mb 0.00 in0.0 mm 0.00 in0.0 mm 0.00 in0.0 mm
04:50 PM 52.5°F11.4°C 44.5°F6.9°C 74% 4.7 mph SSW7.6 kmh SSW 7.6 mph12.2 kmh 30.21 in1023.0 mb 0.00 in0.0 mm 0.00 in0.0 mm 0.00 in0.0 mm
05:00 PM 52.3°F11.3°C 44.7°F7.1°C 75% 5.0 mph SW8.0 kmh SW 6.0 mph9.7 kmh 30.21 in1023.0 mb 0.00 in0.0 mm 0.00 in0.0 mm 0.00 in0.0 mm
05:10 PM 52.0°F11.1°C 44.7°F7.1°C 76% 4.1 mph SW6.6 kmh SW 6.0 mph9.7 kmh 30.21 in1023.0 mb 0.00 in0.0 mm 0.00 in0.0 mm 0.00 in0.0 mm
05:20 PM 51.8°F11.0°C 44.8°F7.1°C 77% 2.9 mph S4.7 kmh S 5.4 mph8.7 kmh 30.21 in1023.0 mb 0.00 in0.0 mm 0.00 in0.0 mm 0.00 in0.0 mm
05:30 PM 51.4°F10.8°C 44.5°F6.9°C 77% 2.9 mph WSW4.7 kmh WSW 6.0 mph9.7 kmh 30.21 in1023.0 mb 0.00 in0.0 mm 0.00 in0.0 mm 0.00 in0.0 mm
05:40 PM 51.1°F10.6°C 44.5°F6.9°C 78% 3.3 mph SSW5.3 kmh SSW 4.5 mph7.2 kmh 30.22 in1023.4 mb 0.00 in0.0 mm 0.00 in0.0 mm 0.00 in0.0 mm
05:50 PM 50.9°F10.5°C 44.6°F7.0°C 79% 3.5 mph SW5.6 kmh SW 5.4 mph8.7 kmh 30.22 in1023.4 mb 0.00 in0.0 mm 0.00 in0.0 mm 0.00 in0.0 mm
06:00 PM 50.7°F10.4°C 44.8°F7.1°C 80% 4.1 mph SSW6.6 kmh SSW 5.4 mph8.7 kmh 30.22 in1023.4 mb 0.00 in0.0 mm 0.00 in0.0 mm 0.00 in0.0 mm
06:10 PM 50.5°F10.3°C 44.6°F7.0°C 80% 3.2 mph SSW5.1 kmh SSW 6.0 mph9.7 kmh 30.23 in1023.7 mb 0.00 in0.0 mm 0.00 in0.0 mm 0.00 in0.0 mm
06:20 PM 50.5°F10.3°C 44.9°F7.2°C 81% 1.9 mph S3.1 kmh S 3.8 mph6.1 kmh 30.23 in1023.7 mb 0.00 in0.0 mm 0.00 in0.0 mm 0.00 in0.0 mm
06:30 PM 50.5°F10.3°C 44.9°F7.2°C 81% 3.0 mph SW4.8 kmh SW 3.8 mph6.1 kmh 30.23 in1023.7 mb 0.00 in0.0 mm 0.00 in0.0 mm 0.00 in0.0 mm
06:40 PM 50.4°F10.2°C 44.8°F7.1°C 81% 2.3 mph SW3.7 kmh SW 3.1 mph5.0 kmh 30.24 in1024.0 mb 0.00 in0.0 mm 0.00 in0.0 mm 0.00 in0.0 mm
06:50 PM 50.4°F10.2°C 45.1°F7.3°C 82% 2.0 mph S3.2 kmh S 3.8 mph6.1 kmh 30.23 in1023.7 mb 0.00 in0.0 mm 0.00 in0.0 mm 0.00 in0.0 mm
07:00 PM 50.4°F10.2°C 45.1°F7.3°C 82% 1.7 mph SE2.7 kmh SE 3.1 mph5.0 kmh 30.24 in1024.0 mb 0.00 in0.0 mm 0.00 in0.0 mm 0.00 in0.0 mm
07:10 PM 50.4°F10.2°C 45.1°F7.3°C 82% 1.9 mph S3.1 kmh S 3.1 mph5.0 kmh 30.23 in1023.7 mb 0.00 in0.0 mm 0.00 in0.0 mm 0.00 in0.0 mm
07:20 PM 50.4°F10.2°C 45.1°F7.3°C 82% 2.9 mph SSW4.7 kmh SSW 4.5 mph7.2 kmh 30.23 in1023.7 mb 0.00 in0.0 mm 0.00 in0.0 mm 0.00 in0.0 mm
07:30 PM 50.2°F10.1°C 45.2°F7.3°C 83% 2.8 mph SSW4.5 kmh SSW 4.5 mph7.2 kmh 30.24 in1024.0 mb 0.00 in0.0 mm 0.00 in0.0 mm 0.00 in0.0 mm
07:40 PM 50.2°F10.1°C 45.2°F7.3°C 83% 2.5 mph WSW4.0 kmh WSW 5.4 mph8.7 kmh 30.24 in1024.0 mb 0.00 in0.0 mm 0.00 in0.0 mm 0.00 in0.0 mm
07:50 PM 50.2°F10.1°C 45.2°F7.3°C 83% 4.0 mph SSW6.4 kmh SSW 5.4 mph8.7 kmh 30.24 in1024.0 mb 0.00 in0.0 mm 0.00 in0.0 mm 0.00 in0.0 mm
08:00 PM 50.0°F10.0°C 45.0°F7.2°C 83% 3.1 mph SSW5.0 kmh SSW 5.4 mph8.7 kmh 30.24 in1024.0 mb 0.00 in0.0 mm 0.00 in0.0 mm 0.00 in0.0 mm
08:10 PM 50.0°F10.0°C 45.4°F7.4°C 84% 2.1 mph S3.4 kmh S 3.1 mph5.0 kmh 30.25 in1024.4 mb 0.00 in0.0 mm 0.00 in0.0 mm 0.00 in0.0 mm
08:20 PM 50.0°F10.0°C 45.4°F7.4°C 84% 1.5 mph SSW2.4 kmh SSW 3.1 mph5.0 kmh 30.25 in1024.4 mb 0.00 in0.0 mm 0.00 in0.0 mm 0.00 in0.0 mm
08:30 PM 50.0°F10.0°C 45.4°F7.4°C 84% 2.2 mph S3.5 kmh S 2.2 mph3.5 kmh 30.25 in1024.4 mb 0.00 in0.0 mm 0.00 in0.0 mm 0.00 in0.0 mm
08:40 PM 50.0°F10.0°C 45.4°F7.4°C 84% 2.2 mph S3.5 kmh S 2.2 mph3.5 kmh 30.25 in1024.4 mb 0.00 in0.0 mm 0.00 in0.0 mm 0.00 in0.0 mm
08:50 PM 50.0°F10.0°C 45.4°F7.4°C 84% Calm Calm -- 30.25 in1024.4 mb 0.00 in0.0 mm 0.00 in0.0 mm 0.00 in0.0 mm
09:00 PM 50.0°F10.0°C 45.4°F7.4°C 84% 0.2 mph NW0.3 kmh NW 1.6 mph2.6 kmh 30.25 in1024.4 mb 0.00 in0.0 mm 0.00 in0.0 mm 0.00 in0.0 mm
09:10 PM 50.0°F10.0°C 45.4°F7.4°C 84% 0.4 mph NW0.6 kmh NW 1.6 mph2.6 kmh 30.25 in1024.4 mb 0.00 in0.0 mm 0.00 in0.0 mm 0.00 in0.0 mm
09:20 PM 50.0°F10.0°C 45.4°F7.4°C 84% 0.3 mph NW0.5 kmh NW 1.6 mph2.6 kmh 30.25 in1024.4 mb 0.00 in0.0 mm 0.00 in0.0 mm 0.00 in0.0 mm
09:30 PM 50.0°F10.0°C 45.4°F7.4°C 84% 1.1 mph NW1.8 kmh NW 2.2 mph3.5 kmh 30.25 in1024.4 mb 0.00 in0.0 mm 0.00 in0.0 mm 0.00 in0.0 mm
09:40 PM 49.6°F9.8°C 44.7°F7.1°C 83% 2.0 mph NNE3.2 kmh NNE 2.2 mph3.5 kmh 30.25 in1024.4 mb 0.00 in0.0 mm 0.00 in0.0 mm 0.00 in0.0 mm
09:50 PM 49.3°F9.6°C 44.3°F6.8°C 83% 2.5 mph NNE4.0 kmh NNE 4.5 mph7.2 kmh 30.25 in1024.4 mb 0.00 in0.0 mm 0.00 in0.0 mm 0.00 in0.0 mm
10:00 PM 48.9°F9.4°C 44.0°F6.7°C 83% 3.5 mph NNW5.6 kmh NNW 3.8 mph6.1 kmh 30.25 in1024.4 mb 0.00 in0.0 mm 0.00 in0.0 mm 0.00 in0.0 mm
10:10 PM 48.9°F9.4°C 44.0°F6.7°C 83% 2.0 mph N3.2 kmh N 3.1 mph5.0 kmh 30.25 in1024.4 mb 0.00 in0.0 mm 0.00 in0.0 mm 0.00 in0.0 mm
10:20 PM 48.7°F9.3°C 43.8°F6.6°C 83% 1.8 mph NNE2.9 kmh NNE 2.2 mph3.5 kmh 30.25 in1024.4 mb 0.00 in0.0 mm 0.00 in0.0 mm 0.00 in0.0 mm
10:30 PM 48.7°F9.3°C 43.8°F6.6°C 83% 1.2 mph NNE1.9 kmh NNE 1.6 mph2.6 kmh 30.25 in1024.4 mb 0.00 in0.0 mm 0.00 in0.0 mm 0.00 in0.0 mm
10:40 PM 48.7°F9.3°C 44.1°F6.7°C 84% 0.5 mph N0.8 kmh N 1.6 mph2.6 kmh 30.25 in1024.4 mb 0.00 in0.0 mm 0.00 in0.0 mm 0.00 in0.0 mm
10:50 PM 48.7°F9.3°C 44.1°F6.7°C 84% 0.8 mph NNW1.3 kmh NNW 1.6 mph2.6 kmh 30.25 in1024.4 mb 0.00 in0.0 mm 0.00 in0.0 mm 0.00 in0.0 mm
11:00 PM 48.7°F9.3°C 44.1°F6.7°C 84% 0.1 mph NW0.2 kmh NW 0.7 mph1.1 kmh 30.25 in1024.4 mb 0.00 in0.0 mm 0.00 in0.0 mm 0.00 in0.0 mm
11:10 PM 48.7°F9.3°C 44.1°F6.7°C 84% 0.7 mph NNW1.1 kmh NNW 1.6 mph2.6 kmh 30.25 in1024.4 mb 0.00 in0.0 mm 0.00 in0.0 mm 0.00 in0.0 mm
11:20 PM 48.7°F9.3°C 44.1°F6.7°C 84% 0.1 mph N0.2 kmh N 0.7 mph1.1 kmh 30.25 in1024.4 mb 0.00 in0.0 mm 0.00 in0.0 mm 0.00 in0.0 mm
11:30 PM 48.7°F9.3°C 44.1°F6.7°C 84% 1.4 mph NE2.3 kmh NE 2.2 mph3.5 kmh 30.25 in1024.4 mb 0.00 in0.0 mm 0.00 in0.0 mm 0.00 in0.0 mm
11:40 PM 48.7°F9.3°C 44.1°F6.7°C 84% 0.5 mph NE0.8 kmh NE 1.6 mph2.6 kmh 30.25 in1024.4 mb 0.00 in0.0 mm 0.00 in0.0 mm 0.00 in0.0 mm
11:50 PM 48.6°F9.2°C 44.0°F6.7°C 84% 0.6 mph NE1.0 kmh NE 1.6 mph2.6 kmh 30.25 in1024.4 mb 0.00 in0.0 mm 0.00 in0.0 mm 0.00 in0.0 mm